N51CP KADM-KAMA
Flight info
| Callsign | N51CP |
|---|---|
| Flight time | 1h 5m |
| Altitude | 28000 |
| Route | CDS |
| Aircraft | TBM9/L-SDFGRWY/S |
Departure
| Time | 2026-05-04 11:13 |
|---|---|
| Airport | Ardmore Municipal Airport (KADM) |
Arrival
| Time | 2026-05-04 12:18 |
|---|---|
| Airport | Rick Husband Amarillo International Airport (KAMA) |
| Time | Latitude | Longitude | Altitude | Speed | Heading |
|---|---|---|---|---|---|
| 2026-05-04 11:06 | 34.30051 | -97.02587 | 738 ft | 0 kts | 268° |
| 2026-05-04 11:10 | 34.30041 | -97.02583 | 738 ft | 7 kts | 52° |
| 2026-05-04 11:12 | 34.30699 | -97.02423 | 733 ft | 14 kts | 87° |
| 2026-05-04 11:12 | 34.30665 | -97.02355 | 734 ft | 11 kts | 177° |
| 2026-05-04 11:12 | 34.30434 | -97.02356 | 737 ft | 61 kts | 180° |
| 2026-05-04 11:12 | 34.29851 | -97.02345 | 810 ft | 103 kts | 178° |
| 2026-05-04 11:13 | 34.29056 | -97.02268 | 1082 ft | 122 kts | 175° |
| 2026-05-04 11:13 | 34.28184 | -97.02297 | 1448 ft | 130 kts | 201° |
| 2026-05-04 11:13 | 34.27635 | -97.03172 | 1866 ft | 147 kts | 256° |
| 2026-05-04 11:13 | 34.27794 | -97.04436 | 2335 ft | 157 kts | 274° |
| 2026-05-04 11:14 | 34.28033 | -97.05684 | 2914 ft | 146 kts | 264° |
| 2026-05-04 11:14 | 34.28049 | -97.06902 | 3411 ft | 146 kts | 265° |
| 2026-05-04 11:14 | 34.28109 | -97.08145 | 3857 ft | 149 kts | 266° |
| 2026-05-04 11:16 | 34.28525 | -97.18220 | 6277 ft | 195 kts | 271° |
| 2026-05-04 11:16 | 34.28589 | -97.19848 | 6621 ft | 196 kts | 271° |
| 2026-05-04 11:16 | 34.28655 | -97.21503 | 6969 ft | 198 kts | 271° |
| 2026-05-04 11:17 | 34.28720 | -97.23180 | 7327 ft | 198 kts | 272° |
| 2026-05-04 11:17 | 34.28786 | -97.24833 | 7688 ft | 199 kts | 272° |
| 2026-05-04 11:19 | 34.29221 | -97.36116 | 10026 ft | 204 kts | 273° |
| 2026-05-04 11:19 | 34.29287 | -97.37838 | 10342 ft | 205 kts | 273° |
| 2026-05-04 11:19 | 34.29353 | -97.39575 | 10650 ft | 206 kts | 273° |
| 2026-05-04 11:19 | 34.29419 | -97.41298 | 10961 ft | 207 kts | 273° |
| 2026-05-04 11:20 | 34.29485 | -97.43048 | 11270 ft | 208 kts | 273° |
| 2026-05-04 11:20 | 34.29551 | -97.44810 | 11573 ft | 210 kts | 274° |
| 2026-05-04 11:20 | 34.29617 | -97.46581 | 11878 ft | 211 kts | 274° |
| 2026-05-04 11:20 | 34.29683 | -97.48337 | 12185 ft | 212 kts | 274° |
| 2026-05-04 11:22 | 34.30146 | -97.60954 | 14341 ft | 212 kts | 275° |
| 2026-05-04 11:22 | 34.30210 | -97.62743 | 14608 ft | 213 kts | 275° |
| 2026-05-04 11:23 | 34.30275 | -97.64537 | 14880 ft | 213 kts | 275° |
| 2026-05-04 11:23 | 34.30340 | -97.66329 | 15156 ft | 213 kts | 275° |
| 2026-05-04 11:24 | 34.30720 | -97.77086 | 16749 ft | 215 kts | 275° |
| 2026-05-04 11:25 | 34.30782 | -97.78892 | 17014 ft | 215 kts | 275° |
| 2026-05-04 11:25 | 34.30845 | -97.80701 | 17272 ft | 215 kts | 275° |
| 2026-05-04 11:25 | 34.30908 | -97.82515 | 17530 ft | 215 kts | 275° |
| 2026-05-04 11:26 | 34.31032 | -97.86127 | 18033 ft | 216 kts | 275° |
| 2026-05-04 11:27 | 34.31462 | -97.98932 | 19543 ft | 218 kts | 275° |
| 2026-05-04 11:28 | 34.31522 | -98.00747 | 19746 ft | 219 kts | 275° |
| 2026-05-04 11:28 | 34.31582 | -98.02589 | 19961 ft | 219 kts | 275° |
| 2026-05-04 11:28 | 34.31643 | -98.04445 | 20154 ft | 220 kts | 275° |
| 2026-05-04 11:28 | 34.31703 | -98.06293 | 20346 ft | 221 kts | 275° |
| 2026-05-04 11:29 | 34.31764 | -98.08156 | 20542 ft | 221 kts | 275° |
| 2026-05-04 11:29 | 34.31824 | -98.10019 | 20747 ft | 222 kts | 275° |
| 2026-05-04 11:29 | 34.31883 | -98.11872 | 20944 ft | 222 kts | 275° |
| 2026-05-04 11:29 | 34.31943 | -98.13745 | 21138 ft | 223 kts | 275° |
| 2026-05-04 11:31 | 34.32357 | -98.26956 | 22465 ft | 227 kts | 275° |
| 2026-05-04 11:33 | 34.32765 | -98.40424 | 23677 ft | 230 kts | 275° |
| 2026-05-04 11:33 | 34.32822 | -98.42339 | 23831 ft | 230 kts | 275° |
| 2026-05-04 11:33 | 34.32879 | -98.44275 | 23984 ft | 230 kts | 275° |
| 2026-05-04 11:34 | 34.32936 | -98.46218 | 24136 ft | 230 kts | 275° |
| 2026-05-04 11:34 | 34.32992 | -98.48134 | 24285 ft | 230 kts | 275° |
| 2026-05-04 11:34 | 34.33048 | -98.50076 | 24422 ft | 230 kts | 275° |
| 2026-05-04 11:34 | 34.33104 | -98.52015 | 24577 ft | 230 kts | 275° |
| 2026-05-04 11:35 | 34.33159 | -98.53929 | 24724 ft | 230 kts | 275° |
| 2026-05-04 11:35 | 34.33214 | -98.55869 | 24871 ft | 230 kts | 275° |
| 2026-05-04 11:35 | 34.33269 | -98.57805 | 25017 ft | 230 kts | 275° |
| 2026-05-04 11:35 | 34.33323 | -98.59725 | 25166 ft | 230 kts | 275° |
| 2026-05-04 11:36 | 34.33377 | -98.61656 | 25305 ft | 230 kts | 275° |
| 2026-05-04 11:36 | 34.33432 | -98.63591 | 25451 ft | 230 kts | 275° |
| 2026-05-04 11:36 | 34.33485 | -98.65526 | 25585 ft | 230 kts | 276° |
| 2026-05-04 11:36 | 34.33538 | -98.67443 | 25721 ft | 230 kts | 276° |
| 2026-05-04 11:37 | 34.33591 | -98.69381 | 25858 ft | 230 kts | 276° |
| 2026-05-04 11:37 | 34.33644 | -98.71325 | 26002 ft | 230 kts | 276° |
| 2026-05-04 11:37 | 34.33697 | -98.73259 | 26125 ft | 230 kts | 276° |
| 2026-05-04 11:37 | 34.33748 | -98.75172 | 26258 ft | 230 kts | 276° |
| 2026-05-04 11:38 | 34.33800 | -98.77106 | 26395 ft | 230 kts | 276° |
| 2026-05-04 11:38 | 34.33852 | -98.79044 | 26526 ft | 230 kts | 276° |
| 2026-05-04 11:38 | 34.33903 | -98.80984 | 26652 ft | 230 kts | 276° |
| 2026-05-04 11:38 | 34.33954 | -98.82901 | 26780 ft | 230 kts | 276° |
| 2026-05-04 11:39 | 34.34005 | -98.84838 | 26908 ft | 230 kts | 276° |
| 2026-05-04 11:39 | 34.34055 | -98.86783 | 27032 ft | 230 kts | 276° |
| 2026-05-04 11:40 | 34.34351 | -98.98386 | 27737 ft | 230 kts | 276° |
| 2026-05-04 11:41 | 34.34399 | -99.00332 | 27844 ft | 230 kts | 276° |
| 2026-05-04 11:41 | 34.34448 | -99.02266 | 27854 ft | 234 kts | 276° |
| 2026-05-04 11:41 | 34.34498 | -99.04260 | 27858 ft | 239 kts | 276° |
| 2026-05-04 11:41 | 34.34548 | -99.06291 | 27860 ft | 243 kts | 276° |
| 2026-05-04 11:42 | 34.34598 | -99.08329 | 27864 ft | 247 kts | 276° |
| 2026-05-04 11:42 | 34.34649 | -99.10419 | 27854 ft | 250 kts | 276° |
| 2026-05-04 11:42 | 34.34699 | -99.12539 | 27855 ft | 252 kts | 276° |
| 2026-05-04 11:42 | 34.34749 | -99.14651 | 27854 ft | 254 kts | 276° |
| 2026-05-04 11:43 | 34.34800 | -99.16797 | 27853 ft | 255 kts | 276° |
| 2026-05-04 11:43 | 34.34850 | -99.18957 | 27851 ft | 256 kts | 276° |
| 2026-05-04 11:43 | 34.34900 | -99.21097 | 27848 ft | 257 kts | 276° |
| 2026-05-04 11:43 | 34.34950 | -99.23269 | 27846 ft | 258 kts | 276° |
| 2026-05-04 11:44 | 34.35000 | -99.25440 | 27840 ft | 258 kts | 276° |
| 2026-05-04 11:44 | 34.35049 | -99.27603 | 27837 ft | 259 kts | 276° |
| 2026-05-04 11:44 | 34.35098 | -99.29791 | 27834 ft | 259 kts | 276° |
| 2026-05-04 11:44 | 34.35147 | -99.31980 | 27831 ft | 259 kts | 276° |
| 2026-05-04 11:45 | 34.35195 | -99.34145 | 27827 ft | 260 kts | 276° |
| 2026-05-04 11:45 | 34.35243 | -99.36337 | 27824 ft | 260 kts | 276° |
| 2026-05-04 11:45 | 34.35291 | -99.38527 | 27815 ft | 260 kts | 276° |
| 2026-05-04 11:45 | 34.35338 | -99.40721 | 27817 ft | 260 kts | 276° |
| 2026-05-04 11:46 | 34.35386 | -99.42915 | 27816 ft | 260 kts | 276° |
| 2026-05-04 11:46 | 34.35432 | -99.45083 | 27814 ft | 260 kts | 276° |
| 2026-05-04 11:46 | 34.35478 | -99.47275 | 27814 ft | 260 kts | 275° |
| 2026-05-04 11:46 | 34.35523 | -99.49465 | 27813 ft | 260 kts | 275° |
| 2026-05-04 11:47 | 34.35569 | -99.51660 | 27809 ft | 260 kts | 275° |
| 2026-05-04 11:47 | 34.35615 | -99.53858 | 27809 ft | 260 kts | 275° |
| 2026-05-04 11:47 | 34.35659 | -99.56028 | 27809 ft | 260 kts | 275° |
| 2026-05-04 11:47 | 34.35703 | -99.58228 | 27810 ft | 261 kts | 275° |
| 2026-05-04 11:48 | 34.35747 | -99.60398 | 27834 ft | 261 kts | 275° |
| 2026-05-04 11:48 | 34.35791 | -99.62602 | 27820 ft | 261 kts | 275° |
| 2026-05-04 11:48 | 34.35835 | -99.64813 | 27818 ft | 261 kts | 275° |
| 2026-05-04 11:48 | 34.35877 | -99.66993 | 27817 ft | 261 kts | 275° |
| 2026-05-04 11:49 | 34.35919 | -99.69205 | 27814 ft | 261 kts | 275° |
| 2026-05-04 11:49 | 34.35962 | -99.71409 | 27812 ft | 261 kts | 275° |
| 2026-05-04 11:49 | 34.36003 | -99.73588 | 27811 ft | 261 kts | 275° |
| 2026-05-04 11:49 | 34.36044 | -99.75792 | 27809 ft | 261 kts | 275° |
| 2026-05-04 11:50 | 34.36085 | -99.77974 | 27808 ft | 261 kts | 275° |
| 2026-05-04 11:50 | 34.36126 | -99.80176 | 27807 ft | 261 kts | 275° |
| 2026-05-04 11:50 | 34.36166 | -99.82374 | 27806 ft | 261 kts | 275° |
| 2026-05-04 11:50 | 34.36205 | -99.84584 | 27809 ft | 261 kts | 275° |
| 2026-05-04 11:51 | 34.36244 | -99.86763 | 27809 ft | 261 kts | 275° |
| 2026-05-04 11:51 | 34.36283 | -99.88965 | 27812 ft | 261 kts | 275° |
| 2026-05-04 11:51 | 34.36322 | -99.91166 | 27816 ft | 261 kts | 275° |
| 2026-05-04 11:51 | 34.36360 | -99.93346 | 27820 ft | 261 kts | 275° |
| 2026-05-04 11:52 | 34.36397 | -99.95553 | 27824 ft | 261 kts | 275° |
| 2026-05-04 11:52 | 34.36435 | -99.97759 | 27828 ft | 262 kts | 275° |
| 2026-05-04 11:52 | 34.36472 | -99.99942 | 27833 ft | 262 kts | 275° |
| 2026-05-04 11:52 | 34.36509 | -100.02150 | 27837 ft | 262 kts | 275° |
| 2026-05-04 11:53 | 34.36545 | -100.04363 | 27839 ft | 262 kts | 275° |
| 2026-05-04 11:53 | 34.36581 | -100.06570 | 27843 ft | 262 kts | 275° |
| 2026-05-04 11:53 | 34.36616 | -100.08757 | 27847 ft | 262 kts | 275° |
| 2026-05-04 11:53 | 34.36651 | -100.10974 | 27853 ft | 262 kts | 275° |
| 2026-05-04 11:55 | 34.37576 | -100.26251 | 27889 ft | 258 kts | 288° |
| 2026-05-04 11:55 | 34.38184 | -100.28304 | 27888 ft | 259 kts | 292° |
| 2026-05-04 11:56 | 34.38947 | -100.30251 | 27889 ft | 259 kts | 297° |
| 2026-05-04 11:56 | 34.39878 | -100.32127 | 27824 ft | 261 kts | 301° |
| 2026-05-04 11:56 | 34.40970 | -100.33899 | 27820 ft | 262 kts | 306° |
| 2026-05-04 11:56 | 34.42211 | -100.35545 | 27817 ft | 264 kts | 310° |
| 2026-05-04 11:57 | 34.43479 | -100.37139 | 27691 ft | 267 kts | 309° |
| 2026-05-04 11:57 | 34.44774 | -100.38785 | 27361 ft | 269 kts | 309° |
| 2026-05-04 11:57 | 34.46081 | -100.40437 | 27004 ft | 271 kts | 309° |
| 2026-05-04 11:57 | 34.47378 | -100.42070 | 26651 ft | 273 kts | 310° |
| 2026-05-04 11:58 | 34.48699 | -100.43735 | 26282 ft | 274 kts | 310° |
| 2026-05-04 11:58 | 34.50024 | -100.45411 | 25916 ft | 275 kts | 310° |
| 2026-05-04 11:58 | 34.51355 | -100.47095 | 25552 ft | 277 kts | 310° |
| 2026-05-04 11:58 | 34.52697 | -100.48792 | 25185 ft | 279 kts | 310° |
| 2026-05-04 11:59 | 34.54030 | -100.50477 | 24839 ft | 282 kts | 310° |
| 2026-05-04 11:59 | 34.55400 | -100.52214 | 24450 ft | 287 kts | 310° |
| 2026-05-04 11:59 | 34.56791 | -100.53975 | 24068 ft | 290 kts | 310° |
| 2026-05-04 11:59 | 34.58200 | -100.55757 | 23683 ft | 292 kts | 310° |
| 2026-05-04 12:00 | 34.59613 | -100.57549 | 23260 ft | 293 kts | 310° |
| 2026-05-04 12:00 | 34.61003 | -100.59313 | 22869 ft | 292 kts | 310° |
| 2026-05-04 12:00 | 34.62415 | -100.61107 | 22479 ft | 292 kts | 310° |
| 2026-05-04 12:00 | 34.63823 | -100.62895 | 22092 ft | 292 kts | 310° |
| 2026-05-04 12:01 | 34.65216 | -100.64665 | 21710 ft | 292 kts | 310° |
| 2026-05-04 12:01 | 34.66621 | -100.66452 | 21324 ft | 292 kts | 310° |
| 2026-05-04 12:02 | 34.75070 | -100.77214 | 19001 ft | 294 kts | 310° |
| 2026-05-04 12:03 | 34.76468 | -100.78999 | 18617 ft | 295 kts | 310° |
| 2026-05-04 12:03 | 34.77885 | -100.80807 | 18228 ft | 296 kts | 311° |
| 2026-05-04 12:03 | 34.79305 | -100.82619 | 17810 ft | 295 kts | 311° |
| 2026-05-04 12:03 | 34.80720 | -100.84429 | 17411 ft | 294 kts | 311° |
| 2026-05-04 12:04 | 34.82125 | -100.86230 | 17021 ft | 292 kts | 311° |
| 2026-05-04 12:04 | 34.83499 | -100.87990 | 16733 ft | 288 kts | 311° |
| 2026-05-04 12:04 | 34.84880 | -100.89759 | 16370 ft | 288 kts | 311° |
| 2026-05-04 12:04 | 34.86266 | -100.91531 | 15987 ft | 287 kts | 311° |
| 2026-05-04 12:05 | 34.87650 | -100.93300 | 15611 ft | 287 kts | 311° |
| 2026-05-04 12:05 | 34.89011 | -100.95045 | 15232 ft | 286 kts | 311° |
| 2026-05-04 12:05 | 34.90383 | -100.96809 | 14854 ft | 286 kts | 311° |
| 2026-05-04 12:05 | 34.91752 | -100.98566 | 14477 ft | 285 kts | 311° |
| 2026-05-04 12:06 | 34.93119 | -101.00324 | 14099 ft | 285 kts | 311° |
| 2026-05-04 12:06 | 34.94468 | -101.02056 | 13727 ft | 284 kts | 311° |
| 2026-05-04 12:06 | 34.95825 | -101.03802 | 13329 ft | 283 kts | 311° |
| 2026-05-04 12:06 | 34.97180 | -101.05545 | 12947 ft | 281 kts | 311° |
| 2026-05-04 12:07 | 34.98073 | -101.06694 | 12695 ft | 280 kts | 311° |
| 2026-05-04 12:07 | 34.99414 | -101.08420 | 12341 ft | 279 kts | 311° |
| 2026-05-04 12:07 | 35.01183 | -101.10700 | 11843 ft | 279 kts | 311° |
| 2026-05-04 12:07 | 35.02071 | -101.11843 | 11597 ft | 278 kts | 311° |
| 2026-05-04 12:08 | 35.03400 | -101.13560 | 11230 ft | 278 kts | 311° |
| 2026-05-04 12:08 | 35.04735 | -101.15280 | 10863 ft | 277 kts | 311° |
| 2026-05-04 12:08 | 35.06061 | -101.16990 | 10496 ft | 277 kts | 312° |
| 2026-05-04 12:08 | 35.07385 | -101.18703 | 10127 ft | 277 kts | 311° |
| 2026-05-04 12:09 | 35.08694 | -101.20394 | 9761 ft | 277 kts | 312° |
| 2026-05-04 12:09 | 35.10020 | -101.22106 | 9377 ft | 275 kts | 312° |
| 2026-05-04 12:09 | 35.11330 | -101.23802 | 9010 ft | 273 kts | 312° |
| 2026-05-04 12:09 | 35.12631 | -101.25483 | 8647 ft | 271 kts | 311° |
| 2026-05-04 12:10 | 35.13927 | -101.27161 | 8287 ft | 270 kts | 311° |
| 2026-05-04 12:10 | 35.15202 | -101.28815 | 7934 ft | 269 kts | 311° |
| 2026-05-04 12:10 | 35.16492 | -101.30483 | 7592 ft | 268 kts | 311° |
| 2026-05-04 12:10 | 35.17765 | -101.32137 | 7237 ft | 265 kts | 311° |
| 2026-05-04 12:11 | 35.19012 | -101.33750 | 6899 ft | 262 kts | 311° |
| 2026-05-04 12:11 | 35.20260 | -101.35370 | 6558 ft | 261 kts | 311° |
| 2026-05-04 12:11 | 35.21500 | -101.36986 | 6221 ft | 259 kts | 311° |
| 2026-05-04 12:11 | 35.22742 | -101.38594 | 5869 ft | 259 kts | 311° |
| 2026-05-04 12:12 | 35.23963 | -101.40180 | 5530 ft | 257 kts | 311° |
| 2026-05-04 12:12 | 35.25180 | -101.41773 | 5335 ft | 250 kts | 309° |
| 2026-05-04 12:12 | 35.26324 | -101.43329 | 5335 ft | 241 kts | 309° |
| 2026-05-04 12:12 | 35.27421 | -101.44819 | 5332 ft | 236 kts | 309° |
| 2026-05-04 12:13 | 35.28509 | -101.46304 | 5335 ft | 232 kts | 309° |
| 2026-05-04 12:14 | 35.32244 | -101.58257 | 5364 ft | 228 kts | 256° |
| 2026-05-04 12:15 | 35.31610 | -101.60047 | 5372 ft | 231 kts | 246° |
| 2026-05-04 12:15 | 35.30672 | -101.61663 | 5378 ft | 234 kts | 235° |
| 2026-05-04 12:15 | 35.29467 | -101.63062 | 5233 ft | 241 kts | 228° |
| 2026-05-04 12:15 | 35.28325 | -101.64272 | 5033 ft | 195 kts | 230° |
| 2026-05-04 12:16 | 35.27427 | -101.65210 | 4898 ft | 136 kts | 230° |
| 2026-05-04 12:16 | 35.26681 | -101.65702 | 4797 ft | 113 kts | 219° |
| 2026-05-04 12:16 | 35.26056 | -101.66181 | 4693 ft | 101 kts | 234° |
| 2026-05-04 12:16 | 35.25584 | -101.66767 | 4720 ft | 93 kts | 240° |
| 2026-05-04 12:17 | 35.25125 | -101.67350 | 4639 ft | 98 kts | 238° |
| 2026-05-04 12:17 | 35.24656 | -101.67985 | 4443 ft | 101 kts | 237° |
| 2026-05-04 12:17 | 35.24172 | -101.68636 | 4205 ft | 107 kts | 234° |
| 2026-05-04 12:17 | 35.23662 | -101.69298 | 3985 ft | 104 kts | 230° |
| 2026-05-04 12:18 | 35.23167 | -101.69926 | 3743 ft | 101 kts | 228° |
| 2026-05-04 12:18 | 35.22736 | -101.70479 | 3611 ft | 75 kts | 228° |
| 2026-05-04 12:18 | 35.22531 | -101.70734 | 3615 ft | 12 kts | 169° |
| 2026-05-04 12:18 | 35.22491 | -101.70635 | 3615 ft | 16 kts | 130° |
| 2026-05-04 12:19 | 35.22405 | -101.70534 | 3613 ft | 18 kts | 135° |
| 2026-05-04 12:19 | 35.22317 | -101.70429 | 3614 ft | 17 kts | 137° |
| 2026-05-04 12:19 | 35.22306 | -101.70315 | 3615 ft | 16 kts | 65° |
| 2026-05-04 12:19 | 35.22327 | -101.70254 | 3615 ft | 5 kts | 192° |
| 2026-05-04 12:20 | 35.22324 | -101.70257 | 3615 ft | 0 kts | 219° |